sensor_id;sensor_type;location;lat;lon;timestamp;temperature;humidity
62476;DHT22;50739;45.670;11.936;2023-07-09T00:00:35;24.73;75.30
62476;DHT22;50739;45.670;11.936;2023-07-09T00:05:37;24.74;74.96
62476;DHT22;50739;45.670;11.936;2023-07-09T00:10:39;24.59;74.73
62476;DHT22;50739;45.670;11.936;2023-07-09T00:15:43;24.52;75.24
62476;DHT22;50739;45.670;11.936;2023-07-09T00:20:45;24.43;75.13
62476;DHT22;50739;45.670;11.936;2023-07-09T00:25:49;24.55;74.06
62476;DHT22;50739;45.670;11.936;2023-07-09T00:30:52;24.23;74.85
62476;DHT22;50739;45.670;11.936;2023-07-09T00:35:55;24.26;74.56
62476;DHT22;50739;45.670;11.936;2023-07-09T00:41:02;24.43;74.98
62476;DHT22;50739;45.670;11.936;2023-07-09T00:47:15;24.53;74.65
62476;DHT22;50739;45.670;11.936;2023-07-09T00:51:41;24.40;75.32
62476;DHT22;50739;45.670;11.936;2023-07-09T00:56:47;24.09;76.28
62476;DHT22;50739;45.670;11.936;2023-07-09T01:01:53;24.25;75.24
62476;DHT22;50739;45.670;11.936;2023-07-09T01:06:56;24.25;74.65
62476;DHT22;50739;45.670;11.936;2023-07-09T01:11:59;24.18;75.37
62476;DHT22;50739;45.670;11.936;2023-07-09T01:17:05;23.95;76.30
62476;DHT22;50739;45.670;11.936;2023-07-09T01:22:11;23.95;76.70
62476;DHT22;50739;45.670;11.936;2023-07-09T01:27:14;24.04;75.99
62476;DHT22;50739;45.670;11.936;2023-07-09T01:32:17;23.94;76.73
62476;DHT22;50739;45.670;11.936;2023-07-09T01:37:24;23.74;77.41
62476;DHT22;50739;45.670;11.936;2023-07-09T01:42:27;23.93;76.47
62476;DHT22;50739;45.670;11.936;2023-07-09T01:47:30;23.68;77.17
62476;DHT22;50739;45.670;11.936;2023-07-09T01:52:33;23.61;77.87
62476;DHT22;50739;45.670;11.936;2023-07-09T01:57:36;23.32;78.48
62476;DHT22;50739;45.670;11.936;2023-07-09T02:02:41;23.50;77.87
62476;DHT22;50739;45.670;11.936;2023-07-09T02:07:46;23.59;77.57
62476;DHT22;50739;45.670;11.936;2023-07-09T02:12:49;23.40;78.03
62476;DHT22;50739;45.670;11.936;2023-07-09T02:17:51;23.32;78.23
62476;DHT22;50739;45.670;11.936;2023-07-09T02:22:55;23.40;78.29
62476;DHT22;50739;45.670;11.936;2023-07-09T02:27:58;23.49;78.12
62476;DHT22;50739;45.670;11.936;2023-07-09T02:33:00;23.45;78.42
62476;DHT22;50739;45.670;11.936;2023-07-09T02:38:04;23.13;79.64
62476;DHT22;50739;45.670;11.936;2023-07-09T02:43:06;23.29;79.83
62476;DHT22;50739;45.670;11.936;2023-07-09T02:48:09;23.20;79.19
62476;DHT22;50739;45.670;11.936;2023-07-09T02:53:12;23.20;79.37
62476;DHT22;50739;45.670;11.936;2023-07-09T02:58:15;23.16;79.72
62476;DHT22;50739;45.670;11.936;2023-07-09T03:03:17;23.06;80.27
62476;DHT22;50739;45.670;11.936;2023-07-09T03:08:21;22.87;80.38
62476;DHT22;50739;45.670;11.936;2023-07-09T03:13:23;23.03;79.99
62476;DHT22;50739;45.670;11.936;2023-07-09T03:18:25;22.92;79.88
62476;DHT22;50739;45.670;11.936;2023-07-09T03:23:29;22.85;80.20
62476;DHT22;50739;45.670;11.936;2023-07-09T03:28:32;22.94;79.89
62476;DHT22;50739;45.670;11.936;2023-07-09T03:33:34;22.90;80.04
62476;DHT22;50739;45.670;11.936;2023-07-09T03:38:38;22.74;80.88
62476;DHT22;50739;45.670;11.936;2023-07-09T03:43:40;22.79;80.52
62476;DHT22;50739;45.670;11.936;2023-07-09T03:48:43;22.83;80.74
62476;DHT22;50739;45.670;11.936;2023-07-09T03:53:46;22.99;79.79
62476;DHT22;50739;45.670;11.936;2023-07-09T03:58:49;22.94;80.32
62476;DHT22;50739;45.670;11.936;2023-07-09T04:03:51;22.92;79.84
62476;DHT22;50739;45.670;11.936;2023-07-09T04:08:55;22.92;80.47
62476;DHT22;50739;45.670;11.936;2023-07-09T04:13:57;22.78;81.08
62476;DHT22;50739;45.670;11.936;2023-07-09T04:18:59;22.76;81.10
62476;DHT22;50739;45.670;11.936;2023-07-09T04:24:04;22.71;81.75
62476;DHT22;50739;45.670;11.936;2023-07-09T04:29:06;22.99;80.08
62476;DHT22;50739;45.670;11.936;2023-07-09T04:34:09;22.91;80.21
62476;DHT22;50739;45.670;11.936;2023-07-09T04:39:12;23.06;79.50
62476;DHT22;50739;45.670;11.936;2023-07-09T04:44:15;23.13;79.93
62476;DHT22;50739;45.670;11.936;2023-07-09T04:49:18;23.19;80.91
62476;DHT22;50739;45.670;11.936;2023-07-09T04:54:21;23.39;80.44
62476;DHT22;50739;45.670;11.936;2023-07-09T04:59:24;23.45;78.88
62476;DHT22;50739;45.670;11.936;2023-07-09T05:04:26;23.66;77.84
62476;DHT22;50739;45.670;11.936;2023-07-09T05:09:30;23.84;75.77
62476;DHT22;50739;45.670;11.936;2023-07-09T05:14:32;23.87;76.19
62476;DHT22;50739;45.670;11.936;2023-07-09T05:19:35;24.09;75.56
62476;DHT22;50739;45.670;11.936;2023-07-09T05:24:39;23.98;76.98
62476;DHT22;50739;45.670;11.936;2023-07-09T05:29:42;24.06;76.75
62476;DHT22;50739;45.670;11.936;2023-07-09T05:34:44;24.16;76.82
62476;DHT22;50739;45.670;11.936;2023-07-09T05:39:48;24.29;77.12
62476;DHT22;50739;45.670;11.936;2023-07-09T05:44:51;24.37;76.51
62476;DHT22;50739;45.670;11.936;2023-07-09T05:49:53;24.59;75.94
62476;DHT22;50739;45.670;11.936;2023-07-09T05:54:57;24.64;74.04
62476;DHT22;50739;45.670;11.936;2023-07-09T06:00:00;24.70;74.09
62476;DHT22;50739;45.670;11.936;2023-07-09T06:05:02;24.84;74.96
62476;DHT22;50739;45.670;11.936;2023-07-09T06:10:08;24.97;74.33
62476;DHT22;50739;45.670;11.936;2023-07-09T06:15:10;25.11;74.42
62476;DHT22;50739;45.670;11.936;2023-07-09T06:20:13;25.15;74.10
62476;DHT22;50739;45.670;11.936;2023-07-09T06:25:17;25.29;74.10
62476;DHT22;50739;45.670;11.936;2023-07-09T06:30:20;25.41;74.40
62476;DHT22;50739;45.670;11.936;2023-07-09T06:35:22;25.61;73.80
62476;DHT22;50739;45.670;11.936;2023-07-09T06:40:26;25.76;72.90
62476;DHT22;50739;45.670;11.936;2023-07-09T06:45:28;25.91;72.96
62476;DHT22;50739;45.670;11.936;2023-07-09T06:50:33;25.96;72.85
62476;DHT22;50739;45.670;11.936;2023-07-09T06:55:37;26.13;72.27
62476;DHT22;50739;45.670;11.936;2023-07-09T07:00:39;26.27;71.40
62476;DHT22;50739;45.670;11.936;2023-07-09T07:05:43;26.49;70.61
62476;DHT22;50739;45.670;11.936;2023-07-09T07:10:49;26.52;70.67
62476;DHT22;50739;45.670;11.936;2023-07-09T07:15:52;26.55;71.43
62476;DHT22;50739;45.670;11.936;2023-07-09T07:20:54;26.78;69.81
62476;DHT22;50739;45.670;11.936;2023-07-09T07:25:58;26.90;69.11
62476;DHT22;50739;45.670;11.936;2023-07-09T07:31:01;27.08;68.29
62476;DHT22;50739;45.670;11.936;2023-07-09T07:36:04;27.07;69.11
62476;DHT22;50739;45.670;11.936;2023-07-09T07:41:08;27.20;68.74
62476;DHT22;50739;45.670;11.936;2023-07-09T07:46:10;27.31;68.26
62476;DHT22;50739;45.670;11.936;2023-07-09T07:51:12;27.47;67.77
62476;DHT22;50739;45.670;11.936;2023-07-09T07:56:16;27.59;67.35
62476;DHT22;50739;45.670;11.936;2023-07-09T08:01:18;27.63;67.41
62476;DHT22;50739;45.670;11.936;2023-07-09T08:06:20;27.68;66.18
62476;DHT22;50739;45.670;11.936;2023-07-09T08:11:24;27.84;66.81
62476;DHT22;50739;45.670;11.936;2023-07-09T08:16:31;27.82;66.96
62476;DHT22;50739;45.670;11.936;2023-07-09T08:21:33;27.99;66.97
62476;DHT22;50739;45.670;11.936;2023-07-09T08:26:37;28.06;65.84
62476;DHT22;50739;45.670;11.936;2023-07-09T08:31:40;28.17;67.10
62476;DHT22;50739;45.670;11.936;2023-07-09T08:36:43;28.45;67.06
62476;DHT22;50739;45.670;11.936;2023-07-09T08:41:52;28.37;66.31
62476;DHT22;50739;45.670;11.936;2023-07-09T08:47:00;28.41;67.80
62476;DHT22;50739;45.670;11.936;2023-07-09T08:52:10;28.45;67.33
62476;DHT22;50739;45.670;11.936;2023-07-09T08:57:20;28.68;67.21
62476;DHT22;50739;45.670;11.936;2023-07-09T09:02:31;28.80;65.64
62476;DHT22;50739;45.670;11.936;2023-07-09T09:07:40;28.86;65.12
62476;DHT22;50739;45.670;11.936;2023-07-09T09:12:55;28.96;64.55
62476;DHT22;50739;45.670;11.936;2023-07-09T09:18:20;29.02;62.45
62476;DHT22;50739;45.670;11.936;2023-07-09T09:23:25;29.20;63.18
62476;DHT22;50739;45.670;11.936;2023-07-09T09:28:35;29.03;61.41
62476;DHT22;50739;45.670;11.936;2023-07-09T09:33:41;29.17;64.41
62476;DHT22;50739;45.670;11.936;2023-07-09T09:38:44;29.23;62.27
62476;DHT22;50739;45.670;11.936;2023-07-09T09:43:50;29.46;63.27
62476;DHT22;50739;45.670;11.936;2023-07-09T09:48:55;29.50;62.13
62476;DHT22;50739;45.670;11.936;2023-07-09T09:53:59;29.70;62.21
62476;DHT22;50739;45.670;11.936;2023-07-09T09:59:04;29.51;61.31
62476;DHT22;50739;45.670;11.936;2023-07-09T10:04:16;29.71;61.86
62476;DHT22;50739;45.670;11.936;2023-07-09T10:09:27;29.99;63.68
62476;DHT22;50739;45.670;11.936;2023-07-09T10:14:38;29.91;60.36
62476;DHT22;50739;45.670;11.936;2023-07-09T10:19:48;29.91;59.21
62476;DHT22;50739;45.670;11.936;2023-07-09T10:24:58;29.80;60.81
62476;DHT22;50739;45.670;11.936;2023-07-09T10:30:17;30.05;62.48
62476;DHT22;50739;45.670;11.936;2023-07-09T10:35:25;29.58;61.14
62476;DHT22;50739;45.670;11.936;2023-07-09T10:40:33;29.85;61.58
62476;DHT22;50739;45.670;11.936;2023-07-09T10:45:41;30.12;60.80
62476;DHT22;50739;45.670;11.936;2023-07-09T10:50:47;30.25;60.25
62476;DHT22;50739;45.670;11.936;2023-07-09T10:55:53;30.08;58.80
62476;DHT22;50739;45.670;11.936;2023-07-09T11:00:59;30.32;61.60
62476;DHT22;50739;45.670;11.936;2023-07-09T11:06:03;30.39;59.00
62476;DHT22;50739;45.670;11.936;2023-07-09T11:11:10;30.64;58.75
62476;DHT22;50739;45.670;11.936;2023-07-09T11:16:20;30.92;59.44
62476;DHT22;50739;45.670;11.936;2023-07-09T11:21:26;31.12;58.28
62476;DHT22;50739;45.670;11.936;2023-07-09T11:26:30;31.18;56.56
62476;DHT22;50739;45.670;11.936;2023-07-09T11:31:36;31.25;58.51
62476;DHT22;50739;45.670;11.936;2023-07-09T11:36:51;31.01;56.96
62476;DHT22;50739;45.670;11.936;2023-07-09T11:41:58;30.94;57.99
62476;DHT22;50739;45.670;11.936;2023-07-09T11:47:16;31.29;57.54
62476;DHT22;50739;45.670;11.936;2023-07-09T11:52:24;31.21;57.16
62476;DHT22;50739;45.670;11.936;2023-07-09T11:57:28;31.19;57.46
62476;DHT22;50739;45.670;11.936;2023-07-09T12:02:33;31.53;57.62
62476;DHT22;50739;45.670;11.936;2023-07-09T12:07:36;31.54;56.72
62476;DHT22;50739;45.670;11.936;2023-07-09T12:12:41;31.66;56.82
62476;DHT22;50739;45.670;11.936;2023-07-09T12:17:52;31.85;55.30
62476;DHT22;50739;45.670;11.936;2023-07-09T12:22:55;32.00;54.62
62476;DHT22;50739;45.670;11.936;2023-07-09T12:27:58;32.22;57.09
62476;DHT22;50739;45.670;11.936;2023-07-09T12:33:06;32.14;54.68
62476;DHT22;50739;45.670;11.936;2023-07-09T12:38:17;32.10;54.25
62476;DHT22;50739;45.670;11.936;2023-07-09T12:43:25;31.83;54.80
62476;DHT22;50739;45.670;11.936;2023-07-09T12:48:30;32.21;54.42
62476;DHT22;50739;45.670;11.936;2023-07-09T12:53:32;32.40;53.60
62476;DHT22;50739;45.670;11.936;2023-07-09T12:58:37;32.55;53.17
62476;DHT22;50739;45.670;11.936;2023-07-09T13:03:41;32.66;53.49
62476;DHT22;50739;45.670;11.936;2023-07-09T13:08:43;32.55;53.60
62476;DHT22;50739;45.670;11.936;2023-07-09T13:13:54;32.73;53.76
62476;DHT22;50739;45.670;11.936;2023-07-09T13:18:59;33.21;53.14
62476;DHT22;50739;45.670;11.936;2023-07-09T13:24:03;33.61;53.66
62476;DHT22;50739;45.670;11.936;2023-07-09T13:29:12;33.63;52.13
62476;DHT22;50739;45.670;11.936;2023-07-09T13:34:21;33.82;50.19
62476;DHT22;50739;45.670;11.936;2023-07-09T13:39:24;33.99;51.23
62476;DHT22;50739;45.670;11.936;2023-07-09T13:44:29;34.34;50.91
62476;DHT22;50739;45.670;11.936;2023-07-09T13:49:33;34.52;49.78
62476;DHT22;50739;45.670;11.936;2023-07-09T13:54:35;34.69;49.08
62476;DHT22;50739;45.670;11.936;2023-07-09T13:59:38;34.94;47.96
62476;DHT22;50739;45.670;11.936;2023-07-09T14:04:42;34.82;48.33
62476;DHT22;50739;45.670;11.936;2023-07-09T14:09:45;34.95;48.51
62476;DHT22;50739;45.670;11.936;2023-07-09T14:14:49;34.82;47.98
62476;DHT22;50739;45.670;11.936;2023-07-09T14:19:53;35.26;47.32
62476;DHT22;50739;45.670;11.936;2023-07-09T14:24:57;35.47;46.68
62476;DHT22;50739;45.670;11.936;2023-07-09T14:29:59;35.17;47.93
62476;DHT22;50739;45.670;11.936;2023-07-09T14:35:10;35.55;46.31
62476;DHT22;50739;45.670;11.936;2023-07-09T14:40:14;36.06;46.81
62476;DHT22;50739;45.670;11.936;2023-07-09T14:45:19;36.43;45.64
62476;DHT22;50739;45.670;11.936;2023-07-09T14:50:23;36.37;44.76
62476;DHT22;50739;45.670;11.936;2023-07-09T14:55:26;36.24;45.12
62476;DHT22;50739;45.670;11.936;2023-07-09T15:00:30;36.52;45.24
62476;DHT22;50739;45.670;11.936;2023-07-09T15:05:33;36.74;44.26
62476;DHT22;50739;45.670;11.936;2023-07-09T15:10:36;36.77;44.95
62476;DHT22;50739;45.670;11.936;2023-07-09T15:15:38;36.77;44.86
62476;DHT22;50739;45.670;11.936;2023-07-09T15:20:47;36.72;44.34
62476;DHT22;50739;45.670;11.936;2023-07-09T15:25:50;36.06;45.76
62476;DHT22;50739;45.670;11.936;2023-07-09T15:30:53;36.19;45.04
62476;DHT22;50739;45.670;11.936;2023-07-09T15:35:56;36.01;45.78
62476;DHT22;50739;45.670;11.936;2023-07-09T15:40:59;36.15;45.55
62476;DHT22;50739;45.670;11.936;2023-07-09T15:46:03;36.22;46.04
62476;DHT22;50739;45.670;11.936;2023-07-09T15:51:08;35.92;45.34
62476;DHT22;50739;45.670;11.936;2023-07-09T15:56:13;35.95;47.45
62476;DHT22;50739;45.670;11.936;2023-07-09T16:01:19;35.85;46.88
62476;DHT22;50739;45.670;11.936;2023-07-09T16:06:22;35.74;47.17
62476;DHT22;50739;45.670;11.936;2023-07-09T16:11:25;36.02;47.72
62476;DHT22;50739;45.670;11.936;2023-07-09T16:16:27;35.97;47.33
62476;DHT22;50739;45.670;11.936;2023-07-09T16:21:31;36.08;46.23
62476;DHT22;50739;45.670;11.936;2023-07-09T16:26:34;35.60;47.38
62476;DHT22;50739;45.670;11.936;2023-07-09T16:31:36;35.78;48.48
62476;DHT22;50739;45.670;11.936;2023-07-09T16:36:40;35.42;47.02
62476;DHT22;50739;45.670;11.936;2023-07-09T16:41:42;35.70;48.38
62476;DHT22;50739;45.670;11.936;2023-07-09T16:46:44;35.37;47.14
62476;DHT22;50739;45.670;11.936;2023-07-09T16:51:49;35.34;50.29
62476;DHT22;50739;45.670;11.936;2023-07-09T16:56:52;34.99;49.26
62476;DHT22;50739;45.670;11.936;2023-07-09T17:01:55;34.85;49.31
62476;DHT22;50739;45.670;11.936;2023-07-09T17:06:58;34.91;49.91
62476;DHT22;50739;45.670;11.936;2023-07-09T17:12:01;34.96;48.96
62476;DHT22;50739;45.670;11.936;2023-07-09T17:17:04;34.68;49.97
62476;DHT22;50739;45.670;11.936;2023-07-09T17:22:16;34.61;49.97
62476;DHT22;50739;45.670;11.936;2023-07-09T17:27:20;34.52;49.41
62476;DHT22;50739;45.670;11.936;2023-07-09T17:32:22;34.36;50.19
62476;DHT22;50739;45.670;11.936;2023-07-09T17:37:26;34.37;50.64
62476;DHT22;50739;45.670;11.936;2023-07-09T17:42:28;34.00;51.47
62476;DHT22;50739;45.670;11.936;2023-07-09T17:47:30;33.65;51.60
62476;DHT22;50739;45.670;11.936;2023-07-09T17:52:34;33.48;52.03
62476;DHT22;50739;45.670;11.936;2023-07-09T17:57:36;33.21;52.50
62476;DHT22;50739;45.670;11.936;2023-07-09T18:02:39;33.04;52.82
62476;DHT22;50739;45.670;11.936;2023-07-09T18:07:43;32.73;54.19
62476;DHT22;50739;45.670;11.936;2023-07-09T18:12:45;32.63;54.66
62476;DHT22;50739;45.670;11.936;2023-07-09T18:17:47;32.40;55.98
62476;DHT22;50739;45.670;11.936;2023-07-09T18:22:51;32.20;58.22
62476;DHT22;50739;45.670;11.936;2023-07-09T18:27:56;31.93;59.17
62476;DHT22;50739;45.670;11.936;2023-07-09T18:33:02;31.69;59.96
62476;DHT22;50739;45.670;11.936;2023-07-09T18:38:07;31.45;60.29
62476;DHT22;50739;45.670;11.936;2023-07-09T18:43:11;31.29;60.73
62476;DHT22;50739;45.670;11.936;2023-07-09T18:48:15;31.15;61.10
62476;DHT22;50739;45.670;11.936;2023-07-09T18:53:19;31.09;61.67
62476;DHT22;50739;45.670;11.936;2023-07-09T18:58:24;30.85;62.02
62476;DHT22;50739;45.670;11.936;2023-07-09T19:03:28;30.65;62.58
62476;DHT22;50739;45.670;11.936;2023-07-09T19:08:34;30.48;62.73
62476;DHT22;50739;45.670;11.936;2023-07-09T19:13:36;30.41;62.76
62476;DHT22;50739;45.670;11.936;2023-07-09T19:18:39;30.25;63.26
62476;DHT22;50739;45.670;11.936;2023-07-09T19:23:44;30.13;63.70
62476;DHT22;50739;45.670;11.936;2023-07-09T19:28:46;30.06;63.93
62476;DHT22;50739;45.670;11.936;2023-07-09T19:33:48;29.88;64.61
62476;DHT22;50739;45.670;11.936;2023-07-09T19:38:53;29.81;65.15
62476;DHT22;50739;45.670;11.936;2023-07-09T19:43:55;29.64;65.94
62476;DHT22;50739;45.670;11.936;2023-07-09T19:48:58;29.68;66.10
62476;DHT22;50739;45.670;11.936;2023-07-09T19:54:03;29.53;67.10
62476;DHT22;50739;45.670;11.936;2023-07-09T19:59:11;29.46;67.48
62476;DHT22;50739;45.670;11.936;2023-07-09T20:04:13;29.23;68.64
62476;DHT22;50739;45.670;11.936;2023-07-09T20:09:17;29.20;68.96
62476;DHT22;50739;45.670;11.936;2023-07-09T20:14:21;29.13;69.33
62476;DHT22;50739;45.670;11.936;2023-07-09T20:19:24;29.00;69.92
62476;DHT22;50739;45.670;11.936;2023-07-09T20:24:27;28.91;70.22
62476;DHT22;50739;45.670;11.936;2023-07-09T20:29:30;28.83;70.77
62476;DHT22;50739;45.670;11.936;2023-07-09T20:34:32;28.82;70.94
62476;DHT22;50739;45.670;11.936;2023-07-09T20:39:36;28.78;71.13
62476;DHT22;50739;45.670;11.936;2023-07-09T20:44:40;28.79;70.94
62476;DHT22;50739;45.670;11.936;2023-07-09T20:49:43;28.78;71.17
62476;DHT22;50739;45.670;11.936;2023-07-09T20:54:50;28.69;71.45
62476;DHT22;50739;45.670;11.936;2023-07-09T20:59:52;28.71;71.25
62476;DHT22;50739;45.670;11.936;2023-07-09T21:04:54;28.79;71.30
62476;DHT22;50739;45.670;11.936;2023-07-09T21:09:58;28.76;71.39
62476;DHT22;50739;45.670;11.936;2023-07-09T21:15:01;28.65;71.70
62476;DHT22;50739;45.670;11.936;2023-07-09T21:20:12;28.58;71.87
62476;DHT22;50739;45.670;11.936;2023-07-09T21:25:18;28.27;73.46
62476;DHT22;50739;45.670;11.936;2023-07-09T21:30:22;28.21;73.94
62476;DHT22;50739;45.670;11.936;2023-07-09T21:35:25;28.31;73.53
62476;DHT22;50739;45.670;11.936;2023-07-09T21:40:32;28.27;73.52
62476;DHT22;50739;45.670;11.936;2023-07-09T21:45:37;28.36;73.33
62476;DHT22;50739;45.670;11.936;2023-07-09T21:50:41;28.27;73.77
62476;DHT22;50739;45.670;11.936;2023-07-09T21:55:44;28.34;73.58
62476;DHT22;50739;45.670;11.936;2023-07-09T22:00:47;28.07;73.87
62476;DHT22;50739;45.670;11.936;2023-07-09T22:05:49;28.09;74.04
62476;DHT22;50739;45.670;11.936;2023-07-09T22:10:53;28.18;73.16
62476;DHT22;50739;45.670;11.936;2023-07-09T22:15:56;28.13;73.86
62476;DHT22;50739;45.670;11.936;2023-07-09T22:20:59;27.82;74.78
62476;DHT22;50739;45.670;11.936;2023-07-09T22:26:03;27.99;74.34
62476;DHT22;50739;45.670;11.936;2023-07-09T22:31:08;27.92;74.95
62476;DHT22;50739;45.670;11.936;2023-07-09T22:36:11;27.68;75.24
62476;DHT22;50739;45.670;11.936;2023-07-09T22:41:15;27.66;75.89
62476;DHT22;50739;45.670;11.936;2023-07-09T22:46:18;27.82;75.08
62476;DHT22;50739;45.670;11.936;2023-07-09T22:51:20;27.81;75.18
62476;DHT22;50739;45.670;11.936;2023-07-09T22:56:24;27.62;75.98
62476;DHT22;50739;45.670;11.936;2023-07-09T23:01:28;27.44;76.77
62476;DHT22;50739;45.670;11.936;2023-07-09T23:06:30;27.34;77.48
62476;DHT22;50739;45.670;11.936;2023-07-09T23:11:37;27.42;77.21
62476;DHT22;50739;45.670;11.936;2023-07-09T23:16:39;27.57;76.54
62476;DHT22;50739;45.670;11.936;2023-07-09T23:21:46;27.49;77.08
62476;DHT22;50739;45.670;11.936;2023-07-09T23:26:53;27.52;76.62
62476;DHT22;50739;45.670;11.936;2023-07-09T23:31:57;27.44;76.62
62476;DHT22;50739;45.670;11.936;2023-07-09T23:36:59;27.44;77.54
62476;DHT22;50739;45.670;11.936;2023-07-09T23:47:30;27.42;77.98
62476;DHT22;50739;45.670;11.936;2023-07-09T23:52:33;27.28;78.62
62476;DHT22;50739;45.670;11.936;2023-07-09T23:57:37;27.11;79.69
